Time;durP1;ratioP1;P1;durP2;ratioP2;P2;SDS_P1;SDS_P2;PMS_P1;PMS_P2;Temp;Humidity;BMP_temperature;BMP_pressure;BME280_temperature;BME280_humidity;BME280_pressure;Samples;Min_cycle;Max_cycle;Signal;HPM_P1;HPM_P2
2022/11/22 00:00:27;;;;;;;;;3.00;2.00;;;;;;;;5098733;27;46156;-65
2022/11/22 00:02:52;;;;;;;;;3.33;1.00;;;;;;;;5094492;27;45883;-66
2022/11/22 00:05:17;;;;;;;;;4.00;2.00;;;;;;;;5100788;27;45635;-64
2022/11/22 00:07:42;;;;;;;;;2.33;2.33;;;;;;;;5083112;27;45381;-65
2022/11/22 00:10:09;;;;;;;;;1.00;1.00;;;;;;;;5090555;27;45485;-64
2022/11/22 00:12:35;;;;;;;;;2.67;2.00;;;;;;;;5085654;27;46068;-65
2022/11/22 00:15:00;;;;;;;;;3.67;1.33;;;;;;;;5081191;27;45837;-67
2022/11/22 00:17:25;;;;;;;;;2.33;1.33;;;;;;;;5083773;27;45409;-64
2022/11/22 00:19:51;;;;;;;;;4.00;1.00;;;;;;;;5085077;27;45671;-66
2022/11/22 00:22:16;;;;;;;;;4.00;2.33;;;;;;;;5074148;27;45480;-66
2022/11/22 00:24:42;;;;;;;;;3.33;0.00;;;;;;;;5098217;27;45337;-65
2022/11/22 00:27:07;;;;;;;;;1.33;1.33;;;;;;;;5090348;27;45735;-65
2022/11/22 00:29:33;;;;;;;;;2.67;1.00;;;;;;;;5095299;27;45634;-66
2022/11/22 00:31:58;;;;;;;;;2.67;2.67;;;;;;;;5089013;27;45508;-63
2022/11/22 00:34:23;;;;;;;;;5.00;2.00;;;;;;;;5078810;27;45348;-65
2022/11/22 00:36:48;;;;;;;;;3.00;2.00;;;;;;;;5086885;27;45356;-65
2022/11/22 00:39:14;;;;;;;;;5.00;3.00;;;;;;;;5079359;27;45318;-73
2022/11/22 00:41:39;;;;;;;;;2.00;2.00;;;;;;;;5093656;27;45308;-71
2022/11/22 00:44:04;;;;;;;;;2.33;1.00;;;;;;;;5086346;27;45502;-72
2022/11/22 00:46:29;;;;;;;;;4.00;3.00;;;;;;;;5093803;27;45444;-71
2022/11/22 00:48:55;;;;;;;;;5.67;1.00;;;;;;;;5088462;27;45517;-71
2022/11/22 00:51:20;;;;;;;;;2.67;2.33;;;;;;;;5088512;27;45408;-71
2022/11/22 00:53:45;;;;;;;;;3.00;1.00;;;;;;;;5094006;27;45885;-71
2022/11/22 00:56:11;;;;;;;;;1.33;1.33;;;;;;;;5096497;27;46071;-73
2022/11/22 00:58:36;;;;;;;;;1.00;1.00;;;;;;;;5078072;27;46316;-71
2022/11/22 01:01:01;;;;;;;;;4.33;1.67;;;;;;;;5090010;27;46046;-70
2022/11/22 01:03:26;;;;;;;;;0.67;0.67;;;;;;;;5103785;27;47136;-70
2022/11/22 01:05:52;;;;;;;;;2.00;1.00;;;;;;;;5081209;27;46682;-70
2022/11/22 01:08:17;;;;;;;;;1.00;1.00;;;;;;;;5082841;27;45350;-70
2022/11/22 01:10:42;;;;;;;;;2.00;1.00;;;;;;;;5077940;27;45509;-71
2022/11/22 01:13:08;;;;;;;;;0.67;0.67;;;;;;;;5087231;27;45519;-69
2022/11/22 01:15:34;;;;;;;;;2.00;1.00;;;;;;;;5077705;27;45397;-70
2022/11/22 01:17:59;;;;;;;;;2.33;1.00;;;;;;;;5098352;27;45388;-70
2022/11/22 01:20:24;;;;;;;;;0.33;0.33;;;;;;;;5102896;27;45398;-70
2022/11/22 01:22:49;;;;;;;;;4.00;1.00;;;;;;;;5089014;27;45691;-70
2022/11/22 01:25:15;;;;;;;;;4.67;1.00;;;;;;;;5081580;27;47179;-69
2022/11/22 01:27:40;;;;;;;;;3.00;1.00;;;;;;;;5090092;27;45479;-71
2022/11/22 01:30:05;;;;;;;;;1.33;0.00;;;;;;;;5092119;27;45636;-69
2022/11/22 01:32:31;;;;;;;;;2.33;1.00;;;;;;;;5089093;27;45667;-70
2022/11/22 01:34:56;;;;;;;;;2.00;1.00;;;;;;;;5090685;27;45676;-69
2022/11/22 01:37:21;;;;;;;;;2.00;0.67;;;;;;;;5089541;27;45691;-69
2022/11/22 01:39:47;;;;;;;;;1.33;0.33;;;;;;;;5089367;27;45927;-71
2022/11/22 01:42:12;;;;;;;;;2.67;1.67;;;;;;;;5081946;27;45842;-70
2022/11/22 01:44:38;;;;;;;;;2.67;0.33;;;;;;;;5077347;27;45896;-70
2022/11/22 01:47:10;;;;;;;;;2.00;2.00;;;;;;;;5074236;27;45686;-70
2022/11/22 01:49:41;;;;;;;;;3.33;0.67;;;;;;;;5063244;27;45575;-71
2022/11/22 01:52:11;;;;;;;;;2.00;0.00;;;;;;;;5064449;27;45515;-70
2022/11/22 01:54:38;;;;;;;;;4.00;2.00;;;;;;;;5079617;27;46634;-70
2022/11/22 01:57:06;;;;;;;;;1.67;1.00;;;;;;;;5075022;27;44805;-71
2022/11/22 01:59:32;;;;;;;;;1.67;1.67;;;;;;;;5069648;27;45556;-70
2022/11/22 02:01:58;;;;;;;;;2.67;0.67;;;;;;;;5070353;27;45869;-70
2022/11/22 02:04:26;;;;;;;;;1.00;1.00;;;;;;;;5080828;27;47059;-72
2022/11/22 02:06:51;;;;;;;;;3.00;1.00;;;;;;;;5077449;27;45368;-70
2022/11/22 02:09:17;;;;;;;;;2.33;1.00;;;;;;;;5076744;27;45574;-71
2022/11/22 02:11:46;;;;;;;;;2.67;1.00;;;;;;;;5058996;28;45370;-70
2022/11/22 02:14:12;;;;;;;;;2.00;1.00;;;;;;;;5057109;27;45859;-70
2022/11/22 02:16:38;;;;;;;;;2.67;1.00;;;;;;;;5062154;27;45865;-70
2022/11/22 02:19:04;;;;;;;;;3.00;1.00;;;;;;;;5070616;27;45442;-70
2022/11/22 02:21:29;;;;;;;;;1.33;1.33;;;;;;;;5213411;22;45635;-64
2022/11/22 02:24:04;;;;;;;;;2.00;1.00;;;;;;;;5122721;27;45811;-64
2022/11/22 02:26:30;;;;;;;;;1.00;0.00;;;;;;;;5118551;27;45694;-65
2022/11/22 02:28:59;;;;;;;;;2.00;2.00;;;;;;;;5127175;27;45965;-65
2022/11/22 02:31:34;;;;;;;;;1.33;1.33;;;;;;;;5143293;27;45761;-64
2022/11/22 02:33:59;;;;;;;;;1.00;1.00;;;;;;;;5144052;27;45720;-64
2022/11/22 02:36:25;;;;;;;;;1.33;1.33;;;;;;;;5145077;27;45711;-64
2022/11/22 02:38:51;;;;;;;;;1.00;1.00;;;;;;;;5143318;27;45616;-62
2022/11/22 02:41:16;;;;;;;;;1.00;1.00;;;;;;;;5141084;27;45573;-64
2022/11/22 02:43:43;;;;;;;;;0.67;0.67;;;;;;;;5148562;27;45606;-65
2022/11/22 02:46:10;;;;;;;;;0.67;0.67;;;;;;;;5156886;27;45397;-64
2022/11/22 02:48:42;;;;;;;;;1.33;0.00;;;;;;;;5158087;27;45416;-64
2022/11/22 02:51:07;;;;;;;;;2.00;1.00;;;;;;;;5142024;27;45393;-64
2022/11/22 02:53:32;;;;;;;;;2.33;0.67;;;;;;;;5147745;27;45823;-63
2022/11/22 02:55:58;;;;;;;;;1.67;1.00;;;;;;;;5130123;27;45350;-64
2022/11/22 02:58:23;;;;;;;;;1.00;1.00;;;;;;;;5145791;27;45392;-64
2022/11/22 03:00:48;;;;;;;;;1.33;0.67;;;;;;;;5143062;27;45522;-64
2022/11/22 03:03:13;;;;;;;;;1.00;1.00;;;;;;;;5158186;27;45536;-64
2022/11/22 03:05:39;;;;;;;;;2.00;0.00;;;;;;;;5150393;27;45649;-63
2022/11/22 03:08:04;;;;;;;;;1.67;1.00;;;;;;;;5147516;27;45554;-64
2022/11/22 03:10:29;;;;;;;;;2.67;0.00;;;;;;;;5152737;27;45817;-64
2022/11/22 03:12:56;;;;;;;;;1.00;1.00;;;;;;;;5126730;27;47089;-65
2022/11/22 03:15:21;;;;;;;;;1.33;1.33;;;;;;;;5123746;27;45328;-66
2022/11/22 03:17:46;;;;;;;;;1.33;0.00;;;;;;;;5150584;27;45269;-64
2022/11/22 03:20:11;;;;;;;;;1.33;1.00;;;;;;;;5161659;27;45933;-63
2022/11/22 03:22:37;;;;;;;;;2.33;1.33;;;;;;;;5144742;27;45568;-64
2022/11/22 03:25:02;;;;;;;;;1.00;1.00;;;;;;;;5140980;27;45801;-64
2022/11/22 03:27:28;;;;;;;;;3.00;0.67;;;;;;;;5146530;27;45756;-63
2022/11/22 03:29:53;;;;;;;;;0.00;0.00;;;;;;;;5140820;27;45660;-64
2022/11/22 03:32:18;;;;;;;;;1.67;1.67;;;;;;;;5140059;27;46651;-64
2022/11/22 03:34:43;;;;;;;;;1.00;0.00;;;;;;;;5144386;27;45663;-64
2022/11/22 03:37:09;;;;;;;;;0.33;0.33;;;;;;;;5130097;27;45866;-63
2022/11/22 03:39:34;;;;;;;;;2.00;2.00;;;;;;;;5143677;27;45896;-64
2022/11/22 03:41:59;;;;;;;;;1.00;1.00;;;;;;;;5156364;27;45772;-63
2022/11/22 03:44:24;;;;;;;;;0.00;0.00;;;;;;;;5136699;27;45741;-64
2022/11/22 03:46:50;;;;;;;;;4.00;1.00;;;;;;;;5144277;27;45787;-65
2022/11/22 03:49:15;;;;;;;;;1.00;1.00;;;;;;;;5126914;27;45808;-62
2022/11/22 03:51:40;;;;;;;;;1.33;1.00;;;;;;;;5147601;27;45403;-63
2022/11/22 03:54:05;;;;;;;;;3.00;0.00;;;;;;;;5155181;27;45956;-70
2022/11/22 03:56:31;;;;;;;;;0.00;0.00;;;;;;;;5137092;27;45888;-69
2022/11/22 03:58:56;;;;;;;;;0.00;0.00;;;;;;;;5142810;27;45794;-71
2022/11/22 04:01:21;;;;;;;;;0.00;0.00;;;;;;;;5147963;27;46024;-70
2022/11/22 04:03:46;;;;;;;;;2.67;0.67;;;;;;;;5146569;27;45614;-69
2022/11/22 04:06:12;;;;;;;;;1.33;1.33;;;;;;;;5151816;27;45439;-70
2022/11/22 04:08:37;;;;;;;;;2.00;1.00;;;;;;;;5123335;27;45965;-70
2022/11/22 04:11:02;;;;;;;;;1.00;0.00;;;;;;;;5136697;27;45532;-70
2022/11/22 04:15:05;;;;;;;;;1.00;1.00;;;;;;;;5153948;27;45394;-71
2022/11/22 04:16:13;;;;;;;;;1.00;1.00;;;;;;;;5145278;27;45766;-69
2022/11/22 04:18:38;;;;;;;;;1.00;0.00;;;;;;;;5138976;27;45792;-69
2022/11/22 04:25:12;;;;;;;;;0.67;0.67;;;;;;;;5142803;27;45471;-70
2022/11/22 04:26:32;;;;;;;;;1.67;1.00;;;;;;;;5149122;27;45411;-69
2022/11/22 04:28:57;;;;;;;;;2.00;0.67;;;;;;;;5144552;27;45887;-70
2022/11/22 04:34:06;;;;;;;;;1.67;1.33;;;;;;;;5123774;27;45800;-69
2022/11/22 04:36:32;;;;;;;;;2.67;0.00;;;;;;;;5144248;27;45659;-71
2022/11/22 04:38:57;;;;;;;;;2.00;0.00;;;;;;;;5147586;27;46042;-69
2022/11/22 04:41:22;;;;;;;;;2.00;0.00;;;;;;;;5139280;27;45756;-70
2022/11/22 04:46:31;;;;;;;;;1.00;1.00;;;;;;;;5146043;27;45769;-69
2022/11/22 04:48:57;;;;;;;;;2.00;2.00;;;;;;;;5147652;27;45713;-70
2022/11/22 04:54:06;;;;;;;;;0.00;0.00;;;;;;;;5151483;27;45524;-69
2022/11/22 04:56:31;;;;;;;;;0.00;0.00;;;;;;;;5147551;27;45389;-70
2022/11/22 04:58:56;;;;;;;;;3.33;1.00;;;;;;;;5132421;27;45372;-70
2022/11/22 05:01:22;;;;;;;;;0.67;0.67;;;;;;;;5140282;27;45402;-73
2022/11/22 05:03:47;;;;;;;;;3.67;1.00;;;;;;;;5163169;27;45348;-72
2022/11/22 05:06:13;;;;;;;;;0.00;0.00;;;;;;;;5139201;27;45454;-70
2022/11/22 05:08:38;;;;;;;;;1.33;1.33;;;;;;;;5144194;27;45694;-70
2022/11/22 05:11:03;;;;;;;;;1.00;1.00;;;;;;;;5135661;27;45494;-70
2022/11/22 05:13:30;;;;;;;;;1.00;1.00;;;;;;;;5140144;27;45406;-70
2022/11/22 05:15:56;;;;;;;;;1.00;1.00;;;;;;;;5146027;27;45664;-71
2022/11/22 05:18:25;;;;;;;;;0.00;0.00;;;;;;;;5153050;27;45458;-72
2022/11/22 05:20:50;;;;;;;;;2.00;1.00;;;;;;;;5139122;27;45979;-71
2022/11/22 05:26:00;;;;;;;;;1.00;1.00;;;;;;;;5141860;27;45339;-70
2022/11/22 05:28:29;;;;;;;;;0.00;0.00;;;;;;;;5140837;27;45781;-72
2022/11/22 05:30:55;;;;;;;;;2.00;2.00;;;;;;;;5148276;27;45534;-75
2022/11/22 05:33:20;;;;;;;;;1.00;1.00;;;;;;;;5156978;27;45389;-72
2022/11/22 05:35:45;;;;;;;;;1.00;1.00;;;;;;;;5151301;27;45339;-70
2022/11/22 05:38:11;;;;;;;;;0.67;0.67;;;;;;;;5137636;27;45271;-71
2022/11/22 05:40:36;;;;;;;;;1.00;1.00;;;;;;;;5150861;27;46455;-71
2022/11/22 05:43:01;;;;;;;;;4.00;2.00;;;;;;;;5151127;27;45392;-72
2022/11/22 05:45:26;;;;;;;;;3.00;1.00;;;;;;;;5125868;27;45612;-71
2022/11/22 05:47:52;;;;;;;;;2.00;0.00;;;;;;;;5145675;27;45672;-71
2022/11/22 05:50:17;;;;;;;;;1.00;1.00;;;;;;;;5129930;27;46393;-74
2022/11/22 05:52:42;;;;;;;;;1.00;1.00;;;;;;;;5144782;27;45804;-70
2022/11/22 05:55:07;;;;;;;;;0.00;0.00;;;;;;;;5135222;27;45483;-70
2022/11/22 05:57:33;;;;;;;;;0.67;0.33;;;;;;;;5150484;27;45427;-72
2022/11/22 05:59:58;;;;;;;;;1.67;1.00;;;;;;;;5139605;27;45372;-71
2022/11/22 06:02:23;;;;;;;;;2.00;1.00;;;;;;;;5130619;27;45606;-69
2022/11/22 06:04:49;;;;;;;;;1.00;0.00;;;;;;;;5143702;27;46247;-70
2022/11/22 06:07:14;;;;;;;;;1.00;1.00;;;;;;;;5152017;27;45439;-69
2022/11/22 06:09:39;;;;;;;;;0.00;0.00;;;;;;;;5138540;27;45459;-65
2022/11/22 06:12:05;;;;;;;;;1.00;1.00;;;;;;;;5139210;27;46480;-65
2022/11/22 06:14:30;;;;;;;;;0.00;0.00;;;;;;;;5149313;27;45507;-65
2022/11/22 06:16:55;;;;;;;;;0.00;0.00;;;;;;;;5144307;27;45538;-65
2022/11/22 06:19:21;;;;;;;;;1.33;1.00;;;;;;;;5137079;27;45609;-65
2022/11/22 06:21:46;;;;;;;;;2.67;2.00;;;;;;;;5150461;27;45367;-65
2022/11/22 06:24:11;;;;;;;;;1.67;0.33;;;;;;;;5154002;27;45654;-67
2022/11/22 06:26:36;;;;;;;;;1.00;0.00;;;;;;;;5134676;27;45694;-64
2022/11/22 06:29:01;;;;;;;;;0.33;0.00;;;;;;;;5143378;27;46774;-66
2022/11/22 06:31:27;;;;;;;;;0.00;0.00;;;;;;;;5142011;27;45874;-65
2022/11/22 06:33:53;;;;;;;;;1.00;1.00;;;;;;;;5140728;27;45395;-65
2022/11/22 06:36:23;;;;;;;;;0.67;0.67;;;;;;;;5128492;27;45733;-65
2022/11/22 06:38:49;;;;;;;;;0.00;0.00;;;;;;;;5138927;27;46192;-65
2022/11/22 06:41:15;;;;;;;;;0.00;0.00;;;;;;;;5135899;27;45712;-65
2022/11/22 06:43:43;;;;;;;;;3.00;1.00;;;;;;;;5149550;27;46759;-65
2022/11/22 06:46:09;;;;;;;;;3.00;0.00;;;;;;;;5140212;27;45919;-65
2022/11/22 06:48:35;;;;;;;;;2.00;1.00;;;;;;;;5139909;27;46547;-66
2022/11/22 06:51:02;;;;;;;;;2.00;1.00;;;;;;;;5135312;27;45735;-65
2022/11/22 06:53:28;;;;;;;;;1.00;1.00;;;;;;;;5123934;27;45846;-65
2022/11/22 06:55:58;;;;;;;;;2.00;1.00;;;;;;;;5142217;27;46101;-64
2022/11/22 06:58:24;;;;;;;;;0.00;0.00;;;;;;;;5137232;27;45624;-65
2022/11/22 07:00:49;;;;;;;;;1.67;0.00;;;;;;;;5122512;27;47429;-66
2022/11/22 07:03:14;;;;;;;;;1.67;0.00;;;;;;;;5124732;27;45350;-65
2022/11/22 07:05:48;;;;;;;;;0.00;0.00;;;;;;;;5124827;27;45292;-66
2022/11/22 07:08:13;;;;;;;;;0.00;0.00;;;;;;;;5118701;27;46061;-66
2022/11/22 07:10:38;;;;;;;;;1.00;0.00;;;;;;;;5121902;27;45745;-66
2022/11/22 07:13:03;;;;;;;;;1.00;0.00;;;;;;;;5131438;27;45487;-66
2022/11/22 07:15:29;;;;;;;;;1.67;0.33;;;;;;;;5118744;27;45468;-67
2022/11/22 07:17:54;;;;;;;;;1.67;0.67;;;;;;;;5124281;27;46080;-67
2022/11/22 07:20:20;;;;;;;;;0.00;0.00;;;;;;;;5125453;27;45926;-69
2022/11/22 07:22:51;;;;;;;;;0.00;0.00;;;;;;;;5132103;27;45579;-65
2022/11/22 07:25:17;;;;;;;;;2.00;0.00;;;;;;;;5129294;27;45477;-65
2022/11/22 07:27:42;;;;;;;;;1.00;0.00;;;;;;;;5132499;27;45467;-65
2022/11/22 07:30:07;;;;;;;;;0.00;0.00;;;;;;;;5128402;27;45793;-64
2022/11/22 07:32:33;;;;;;;;;0.00;0.00;;;;;;;;5122703;27;45696;-65
2022/11/22 07:34:58;;;;;;;;;0.00;0.00;;;;;;;;5129753;27;45688;-64
2022/11/22 07:37:23;;;;;;;;;2.00;0.00;;;;;;;;5118768;27;45703;-64
2022/11/22 07:39:48;;;;;;;;;1.00;0.00;;;;;;;;5120020;27;45688;-63
2022/11/22 07:42:14;;;;;;;;;1.00;0.00;;;;;;;;5126204;27;45619;-65
2022/11/22 07:44:39;;;;;;;;;0.00;0.00;;;;;;;;5107456;27;47207;-66
2022/11/22 07:47:04;;;;;;;;;1.00;0.00;;;;;;;;5121569;27;46597;-66
2022/11/22 07:49:29;;;;;;;;;0.00;0.00;;;;;;;;5119298;27;45697;-65
2022/11/22 07:51:55;;;;;;;;;3.00;0.00;;;;;;;;5106579;27;45845;-66
2022/11/22 07:54:20;;;;;;;;;0.00;0.00;;;;;;;;5120545;27;45773;-65
2022/11/22 07:56:45;;;;;;;;;1.67;0.67;;;;;;;;5140525;27;45577;-65
2022/11/22 07:59:11;;;;;;;;;0.00;0.00;;;;;;;;5114122;27;45320;-66
2022/11/22 08:01:36;;;;;;;;;1.00;0.00;;;;;;;;5127709;27;45242;-66
2022/11/22 08:04:01;;;;;;;;;0.00;0.00;;;;;;;;5126495;27;45566;-71
2022/11/22 08:06:26;;;;;;;;;0.33;0.00;;;;;;;;5128321;27;46564;-73
2022/11/22 08:08:52;;;;;;;;;3.00;1.00;;;;;;;;5134700;27;45565;-72
2022/11/22 08:11:17;;;;;;;;;0.67;0.67;;;;;;;;5126549;27;45567;-73
2022/11/22 08:13:43;;;;;;;;;0.00;0.00;;;;;;;;5134180;27;46433;-72
2022/11/22 08:16:10;;;;;;;;;1.00;0.00;;;;;;;;5133293;27;45701;-71
2022/11/22 08:18:35;;;;;;;;;0.33;0.00;;;;;;;;5138833;27;45464;-73
2022/11/22 08:21:11;;;;;;;;;0.33;0.33;;;;;;;;5122713;27;45333;-72
2022/11/22 08:23:37;;;;;;;;;2.00;0.00;;;;;;;;5121462;27;45697;-74
2022/11/22 08:26:03;;;;;;;;;0.67;0.67;;;;;;;;5130432;27;46432;-71
2022/11/22 08:28:31;;;;;;;;;0.33;0.00;;;;;;;;5133571;27;45547;-71
2022/11/22 08:31:00;;;;;;;;;2.00;1.67;;;;;;;;5117762;27;45395;-72
2022/11/22 08:33:25;;;;;;;;;0.00;0.00;;;;;;;;5133677;27;45564;-73
2022/11/22 08:35:51;;;;;;;;;2.67;1.00;;;;;;;;5122528;27;45916;-72
2022/11/22 08:38:16;;;;;;;;;2.00;1.00;;;;;;;;5129185;27;45896;-72
2022/11/22 08:40:41;;;;;;;;;1.00;1.00;;;;;;;;5113752;27;45567;-72
2022/11/22 08:43:06;;;;;;;;;1.33;0.33;;;;;;;;5111146;27;46963;-73
2022/11/22 08:45:32;;;;;;;;;4.67;1.67;;;;;;;;5135250;27;45612;-72
2022/11/22 08:47:57;;;;;;;;;2.00;2.00;;;;;;;;5139941;27;45467;-72
2022/11/22 08:50:22;;;;;;;;;0.33;0.33;;;;;;;;5127038;27;45365;-72
2022/11/22 08:52:47;;;;;;;;;0.00;0.00;;;;;;;;5125970;27;45473;-71
2022/11/22 08:55:13;;;;;;;;;3.00;2.00;;;;;;;;5123018;27;45505;-72
2022/11/22 08:57:38;;;;;;;;;1.67;1.00;;;;;;;;5127583;27;46097;-72
2022/11/22 09:00:05;;;;;;;;;3.00;1.00;;;;;;;;5122627;27;45794;-73
2022/11/22 09:02:30;;;;;;;;;0.00;0.00;;;;;;;;5124135;27;45719;-73
2022/11/22 09:04:55;;;;;;;;;1.00;1.00;;;;;;;;5123036;27;46638;-72
2022/11/22 09:07:20;;;;;;;;;1.33;0.00;;;;;;;;5131344;27;45547;-72
2022/11/22 09:09:46;;;;;;;;;3.67;1.00;;;;;;;;5117260;27;45348;-72
2022/11/22 09:12:11;;;;;;;;;2.00;1.00;;;;;;;;5135348;27;45272;-73
2022/11/22 09:14:36;;;;;;;;;2.00;1.00;;;;;;;;5136034;27;45648;-71
2022/11/22 09:17:02;;;;;;;;;2.33;0.00;;;;;;;;5103591;27;45602;-71
2022/11/22 09:19:27;;;;;;;;;1.00;1.00;;;;;;;;5137772;27;45740;-73
2022/11/22 09:21:52;;;;;;;;;1.00;1.00;;;;;;;;5129453;27;45420;-75
2022/11/22 09:24:17;;;;;;;;;2.00;0.67;;;;;;;;5131488;27;46501;-72
2022/11/22 09:26:43;;;;;;;;;1.67;1.00;;;;;;;;5126731;27;45402;-72
2022/11/22 09:29:08;;;;;;;;;5.33;2.00;;;;;;;;5126720;27;45345;-74
2022/11/22 09:31:33;;;;;;;;;2.67;0.00;;;;;;;;5121425;27;45391;-72
2022/11/22 09:33:59;;;;;;;;;0.67;0.67;;;;;;;;5135041;27;45291;-75
2022/11/22 09:36:27;;;;;;;;;0.00;0.00;;;;;;;;5123224;27;45293;-73
2022/11/22 09:38:53;;;;;;;;;2.33;0.00;;;;;;;;5133697;27;45387;-72
2022/11/22 09:41:38;;;;;;;;;1.00;1.00;;;;;;;;5125774;27;45756;-74
2022/11/22 09:44:09;;;;;;;;;1.00;0.00;;;;;;;;5118622;27;46781;-74
2022/11/22 09:46:34;;;;;;;;;2.33;1.33;;;;;;;;5120180;27;45362;-73
2022/11/22 09:49:09;;;;;;;;;3.33;1.00;;;;;;;;5133448;27;45626;-73
2022/11/22 09:51:43;;;;;;;;;4.75;1.00;;;;;;;;5124368;27;45395;-74
2022/11/22 09:54:11;;;;;;;;;2.00;1.00;;;;;;;;5119936;27;45910;-72
2022/11/22 09:56:38;;;;;;;;;1.00;1.00;;;;;;;;5110046;27;45859;-72
2022/11/22 09:59:06;;;;;;;;;2.75;1.00;;;;;;;;5131658;27;45862;-72
2022/11/22 10:01:46;;;;;;;;;1.00;1.00;;;;;;;;5134468;27;45821;-72
2022/11/22 10:04:16;;;;;;;;;4.50;2.00;;;;;;;;5121464;27;46141;-75
2022/11/22 10:06:44;;;;;;;;;2.00;2.00;;;;;;;;5123624;27;45721;-72
2022/11/22 10:09:18;;;;;;;;;4.50;0.75;;;;;;;;5130612;27;45429;-73
2022/11/22 10:11:47;;;;;;;;;1.00;1.00;;;;;;;;5127921;27;45786;-73
2022/11/22 10:14:18;;;;;;;;;4.75;3.00;;;;;;;;5133538;27;46143;-72
2022/11/22 10:16:51;;;;;;;;;3.75;3.00;;;;;;;;5108360;27;45799;-72
2022/11/22 10:19:21;;;;;;;;;0.00;0.00;;;;;;;;5132958;27;45572;-73
2022/11/22 10:21:46;;;;;;;;;2.00;1.00;;;;;;;;5122044;27;45829;-73
2022/11/22 10:24:14;;;;;;;;;4.00;2.00;;;;;;;;5127030;27;45472;-73
2022/11/22 10:26:39;;;;;;;;;6.25;3.00;;;;;;;;5127133;27;45420;-72
2022/11/22 10:29:07;;;;;;;;;2.25;1.00;;;;;;;;5118165;27;45817;-72
2022/11/22 10:31:38;;;;;;;;;1.25;1.25;;;;;;;;5130087;27;46159;-72
2022/11/22 10:34:09;;;;;;;;;3.50;2.00;;;;;;;;5134398;27;46127;-71
2022/11/22 10:36:41;;;;;;;;;2.00;1.00;;;;;;;;5113979;27;45369;-73
2022/11/22 10:39:06;;;;;;;;;0.50;0.25;;;;;;;;5110016;27;45379;-73
2022/11/22 10:41:34;;;;;;;;;0.00;0.00;;;;;;;;5121381;27;45912;-72
2022/11/22 10:44:17;;;;;;;;;2.75;1.00;;;;;;;;5134028;27;46578;-72
2022/11/22 10:46:42;;;;;;;;;0.75;0.00;;;;;;;;5102978;27;45599;-72
2022/11/22 10:49:24;;;;;;;;;1.00;1.00;;;;;;;;5118755;27;45600;-72
2022/11/22 10:51:50;;;;;;;;;1.50;1.50;;;;;;;;5100519;27;47556;-72
2022/11/22 10:54:15;;;;;;;;;3.00;2.00;;;;;;;;5122191;27;45387;-74
2022/11/22 10:56:54;;;;;;;;;3.50;1.75;;;;;;;;5133219;27;45801;-72
2022/11/22 10:59:43;;;;;;;;;3.00;1.00;;;;;;;;5133626;27;45389;-72
2022/11/22 11:02:11;;;;;;;;;1.00;1.00;;;;;;;;5118132;27;45863;-73
2022/11/22 11:04:38;;;;;;;;;2.00;1.00;;;;;;;;5126094;27;47817;-74
2022/11/22 11:07:04;;;;;;;;;1.75;1.00;;;;;;;;5133393;27;45275;-73
2022/11/22 11:09:44;;;;;;;;;1.50;0.50;;;;;;;;5109433;27;45350;-74
2022/11/22 11:12:20;;;;;;;;;1.75;1.50;;;;;;;;5136520;27;45586;-73
2022/11/22 11:14:48;;;;;;;;;0.00;0.00;;;;;;;;5138886;27;45365;-73
2022/11/22 11:17:19;;;;;;;;;2.50;0.75;;;;;;;;5127082;27;45336;-74
2022/11/22 11:19:48;;;;;;;;;1.33;0.00;;;;;;;;5136771;27;45398;-72
2022/11/22 11:22:20;;;;;;;;;2.00;2.00;;;;;;;;5130503;27;45664;-74
2022/11/22 11:24:46;;;;;;;;;3.50;0.50;;;;;;;;5117662;27;45631;-73
2022/11/22 11:27:11;;;;;;;;;3.00;1.00;;;;;;;;5119463;27;45431;-73
2022/11/22 11:29:40;;;;;;;;;2.00;0.00;;;;;;;;5103813;27;45846;-73
2022/11/22 11:48:25;;;;;;;;;1.67;0.67;;;;;;;;5105449;27;46802;-82
2022/11/22 11:50:50;;;;;;;;;2.00;1.00;;;;;;;;5101398;27;45604;-83
2022/11/22 11:53:23;;;;;;;;;2.33;0.67;;;;;;;;5089548;27;45392;-84
2022/11/22 11:55:48;;;;;;;;;0.67;0.67;;;;;;;;5119166;27;46547;-82
2022/11/22 11:58:22;;;;;;;;;3.33;3.00;;;;;;;;5119803;27;45991;-84
2022/11/22 12:00:47;;;;;;;;;2.00;2.00;;;;;;;;5115099;27;45508;-83
2022/11/22 12:03:16;;;;;;;;;2.33;1.67;;;;;;;;5091802;27;45868;-85
2022/11/22 12:05:41;;;;;;;;;3.33;0.67;;;;;;;;5099243;27;47001;-84
2022/11/22 12:08:36;;;;;;;;;7.00;4.00;;;;;;;;5115238;27;45384;-84
2022/11/22 12:11:03;;;;;;;;;0.00;0.00;;;;;;;;5085933;27;45523;-86
2022/11/22 12:13:48;;;;;;;;;0.67;0.00;;;;;;;;5085907;27;47072;-84
2022/11/22 12:16:22;;;;;;;;;2.00;0.00;;;;;;;;5102262;27;48260;-82
2022/11/22 12:18:55;;;;;;;;;0.67;0.67;;;;;;;;5106274;27;45314;-83
2022/11/22 12:21:26;;;;;;;;;3.67;0.33;;;;;;;;5090315;27;45547;-84
2022/11/22 12:24:01;;;;;;;;;2.00;0.33;;;;;;;;5097946;27;45636;-84
2022/11/22 12:26:28;;;;;;;;;3.33;0.00;;;;;;;;5127082;27;45017;-83
2022/11/22 12:28:55;;;;;;;;;1.00;1.00;;;;;;;;5119693;27;45777;-82
2022/11/22 12:31:30;;;;;;;;;0.67;0.67;;;;;;;;5095173;27;45786;-85
2022/11/22 12:33:57;;;;;;;;;1.00;1.00;;;;;;;;5116860;27;45542;-84
2022/11/22 12:36:28;;;;;;;;;1.00;0.67;;;;;;;;5103554;27;48172;-85
2022/11/22 12:38:55;;;;;;;;;1.00;1.00;;;;;;;;5120146;27;45433;-84
2022/11/22 12:41:24;;;;;;;;;1.00;1.00;;;;;;;;5111670;27;45911;-84
2022/11/22 12:43:54;;;;;;;;;0.67;0.67;;;;;;;;5097635;27;46176;-83
2022/11/22 12:46:26;;;;;;;;;0.33;0.33;;;;;;;;5118188;27;47291;-83
2022/11/22 12:48:57;;;;;;;;;2.33;2.33;;;;;;;;5096706;27;45890;-85
2022/11/22 12:51:30;;;;;;;;;1.67;1.00;;;;;;;;5136981;27;44728;-87
2022/11/22 12:53:59;;;;;;;;;2.00;1.00;;;;;;;;5109904;27;46172;-84
2022/11/22 12:56:24;;;;;;;;;3.33;1.67;;;;;;;;5131189;27;45500;-83
2022/11/22 12:59:14;;;;;;;;;1.33;0.00;;;;;;;;5128924;27;45364;-80
2022/11/22 13:01:47;;;;;;;;;1.33;0.33;;;;;;;;5120048;27;45360;-83
2022/11/22 13:04:19;;;;;;;;;1.67;0.00;;;;;;;;5099774;27;45694;-82
2022/11/22 13:06:48;;;;;;;;;0.00;0.00;;;;;;;;5105480;27;47042;-82
2022/11/22 13:09:19;;;;;;;;;1.00;0.00;;;;;;;;5133082;27;45494;-82
2022/11/22 13:12:09;;;;;;;;;0.33;0.00;;;;;;;;5134606;27;45407;-84
2022/11/22 13:14:41;;;;;;;;;2.33;1.00;;;;;;;;5114905;27;45361;-84
2022/11/22 13:17:07;;;;;;;;;3.67;0.00;;;;;;;;5133558;27;45370;-82
2022/11/22 13:19:36;;;;;;;;;1.33;1.33;;;;;;;;5118731;27;45408;-83
2022/11/22 13:22:09;;;;;;;;;2.00;2.00;;;;;;;;5131600;27;44716;-86
2022/11/22 13:24:34;;;;;;;;;2.00;0.67;;;;;;;;5135118;27;45439;-86
2022/11/22 13:26:59;;;;;;;;;0.00;0.00;;;;;;;;5116898;27;47353;-83
2022/11/22 13:29:30;;;;;;;;;1.33;1.00;;;;;;;;5108602;27;45331;-87
2022/11/22 13:32:11;;;;;;;;;0.00;0.00;;;;;;;;5099261;27;45513;-84
2022/11/22 13:34:38;;;;;;;;;1.33;1.33;;;;;;;;5116902;27;45290;-83
2022/11/22 13:37:07;;;;;;;;;2.33;0.67;;;;;;;;5134039;27;45335;-83
2022/11/22 13:39:35;;;;;;;;;3.67;1.33;;;;;;;;5118128;27;45375;-84
2022/11/22 13:42:03;;;;;;;;;1.67;1.67;;;;;;;;5121692;27;45365;-83
2022/11/22 13:44:31;;;;;;;;;1.33;0.33;;;;;;;;5137897;27;45337;-84
2022/11/22 13:47:23;;;;;;;;;4.00;2.00;;;;;;;;5106873;27;47050;-83
2022/11/22 13:49:52;;;;;;;;;3.00;1.33;;;;;;;;5088287;27;45398;-84
2022/11/22 13:52:18;;;;;;;;;5.67;2.33;;;;;;;;5103985;27;45396;-83
2022/11/22 13:54:46;;;;;;;;;1.00;1.00;;;;;;;;5129969;27;44791;-85
2022/11/22 13:57:30;;;;;;;;;2.50;0.75;;;;;;;;5116764;27;48105;-83
2022/11/22 14:00:14;;;;;;;;;5.67;1.67;;;;;;;;5121303;27;44767;-83
2022/11/22 14:02:39;;;;;;;;;2.33;1.00;;;;;;;;5133275;27;45407;-83
2022/11/22 14:05:23;;;;;;;;;3.67;0.67;;;;;;;;5125928;27;45688;-83
2022/11/22 14:07:49;;;;;;;;;0.67;0.67;;;;;;;;5116722;27;45391;-82
2022/11/22 14:10:30;;;;;;;;;0.00;0.00;;;;;;;;5099597;27;44810;-84
2022/11/22 14:13:15;;;;;;;;;2.33;1.33;;;;;;;;5117995;27;44788;-82
2022/11/22 14:15:50;;;;;;;;;1.67;0.67;;;;;;;;5128504;27;44917;-83
2022/11/22 14:18:16;;;;;;;;;1.67;0.33;;;;;;;;5131302;27;45814;-83
2022/11/22 14:20:47;;;;;;;;;5.00;1.00;;;;;;;;5093909;27;45843;-83
2022/11/22 14:23:19;;;;;;;;;2.00;2.00;;;;;;;;5122636;27;45659;-83
2022/11/22 14:26:00;;;;;;;;;3.00;1.00;;;;;;;;5100983;27;47467;-82
2022/11/22 14:28:32;;;;;;;;;3.33;1.33;;;;;;;;5109465;27;45764;-83
2022/11/22 14:30:57;;;;;;;;;3.00;1.00;;;;;;;;5095051;27;45848;-83
2022/11/22 14:33:24;;;;;;;;;3.33;2.00;;;;;;;;5107892;27;45505;-82
2022/11/22 14:36:05;;;;;;;;;8.33;2.33;;;;;;;;5109961;27;45405;-84
2022/11/22 14:38:34;;;;;;;;;1.67;0.67;;;;;;;;5110640;27;45636;-84
2022/11/22 14:41:18;;;;;;;;;1.00;1.00;;;;;;;;5123401;27;45790;-84
2022/11/22 14:43:44;;;;;;;;;2.00;1.00;;;;;;;;5121489;27;45313;-83
2022/11/22 14:46:12;;;;;;;;;4.00;2.67;;;;;;;;5104173;27;46113;-82
2022/11/22 14:48:56;;;;;;;;;2.00;1.67;;;;;;;;5113385;27;45904;-82
2022/11/22 14:51:24;;;;;;;;;2.00;1.00;;;;;;;;5107901;27;45670;-83
2022/11/22 14:53:58;;;;;;;;;4.67;2.33;;;;;;;;5110205;27;45357;-83
2022/11/22 14:56:25;;;;;;;;;3.33;2.67;;;;;;;;5128291;27;45523;-82
2022/11/22 14:59:00;;;;;;;;;2.33;1.33;;;;;;;;5126261;27;45404;-83
2022/11/22 15:01:44;;;;;;;;;5.67;3.67;;;;;;;;5126577;27;45356;-85
2022/11/22 15:04:28;;;;;;;;;2.00;1.67;;;;;;;;5120462;27;45535;-83
2022/11/22 15:07:02;;;;;;;;;4.33;4.00;;;;;;;;5109262;27;46886;-82
2022/11/22 15:09:42;;;;;;;;;2.00;1.67;;;;;;;;5124484;27;45306;-83
2022/11/22 15:12:10;;;;;;;;;6.67;3.00;;;;;;;;5112528;27;45285;-83
2022/11/22 15:14:55;;;;;;;;;3.33;3.33;;;;;;;;5084220;27;45388;-82
2022/11/22 15:17:22;;;;;;;;;4.00;4.00;;;;;;;;5105570;27;45917;-84